Ko Maeda

Recruteur en chef - Vissel Kobe
23 Sept 2027
Jeudi
Processus

Personnalité

Adaptabilité (5) Ambition (12) Controverse (9) Loyauté (16) Pression (15) Professionnalisme (5) Sportivité (7) Tempérament (13)

Profil

Style d'entraînement Démocratique
Diplôme National B
Détermination 7
Gestion des joueurs 7
Motivation 13
Discipline 8
Satisfaction professionnelle
71%
Fatigue
0%
Rôle Recruteur en chef
Salaire 46.0K p/s
Contrat 14.03.2028

Performance

Comportement Bon
Efficacité de l'entraînement
28%
Développement des joueurs
40%
Prévention des blessures
20%
Mise en place tactique
50%

Événements récents

A évalué un joueur maintenant
A participé à une réunion de recrutement maintenant
A participé à une réunion de recrutement maintenant
A recommandé une cible de transfert maintenant
A recommandé une cible de transfert maintenant
A recommandé une cible de transfert maintenant
A recommandé une cible de transfert maintenant
A recommandé une cible de transfert maintenant

Suivi en cours

131
Joueur Club Statut Capacité Confiance Observé Dernière observation Dernier vote
Lucas Duré Montevideo City Torque Actif 102 / 109 40% 1 20.09.2027 -
Hervin Goyes Deportivo Pasto Actif 113 / 111 40% 1 20.09.2027 -
Sebastián Ramírez Jaguares Actif 105 / 115 40% 1 19.09.2027 -
Daniel Ferraresi Llaneros Actif 90 / 90 40% 1 19.09.2027 -
Diogo Guzmán Montevideo City Torque Actif 112 / 119 40% 2 18.09.2027 -
Wisdom Udom Bendel Insurance Actif 95 / 99 40% 1 18.09.2027 -
Mads Bomholt Stabaek Actif 93 / 121 40% 1 17.09.2027 -
Zannetos Savva Albirex Niigata Actif 92 / 101 40% 1 17.09.2027 -
Mateo Silvetti Los Angeles Football Club Actif 131 / 124 40% 1 16.09.2027 -
David Valencia Alianza Petrolera Actif 120 / 130 40% 1 16.09.2027 -
Fredrik Ardraa Stromsgodset Actif 102 / 102 40% 1 15.09.2027 -
Hassan Beja AFC Leopards Actif 94 / 94 40% 1 15.09.2027 -
Tomás Aranda Boca Juniors Actif 109 / 126 40% 1 13.09.2027 -
Dylan Cabral Arsenal Actif 105 / 98 40% 1 13.09.2027 -
Lucas Camejo River Plate Actif 82 / 86 40% 1 12.09.2027 -
Emiliano Zambrano Gimnasia y Esgrima Actif 100 / 99 40% 1 08.09.2027 -
Oscar Otero Atletico Venezuela Actif 104 / 109 40% 1 08.09.2027 -
Adam Bakoune Ospitaletto Actif 107 / 94 40% 1 09.08.2027 -
Pedro de la Vega FC Dallas Actif 133 / 134 66% 1 22.07.2027 Approuver
Facundo Torres LOSC Lille Actif 134 / 134 67% 1 22.07.2027 Approuver
Sampson Dweh Anderlecht Actif 133 / 134 90% 1 22.07.2027 Approuver
Bitello SC Freiburg Actif 135 / 135 68% 1 22.07.2027 Approuver
Hijiri Kato Omiya Ardija Actif 113 / 121 62% 1 22.07.2027 Approuver
Daniel Kelly Oxford United Actif 128 / 132 40% 1 21.07.2027 -
Cheveyo Tsawa Club Brugge Actif 124 / 119 40% 1 21.07.2027 -
Caleb Yirenkyi Coventry City Actif 148 / 135 40% 2 22.02.2027 -
Jan Bürger Gillingham Actif 107 / 121 40% 1 22.02.2027 -
Matvey Kislyak CSKA Moscow Actif 143 / 135 40% 1 02.02.2027 -
Kirill Glebov CSKA Moscow Actif 139 / 128 40% 1 02.02.2027 -
Julián Quiñones Lokomotiv Moscow Actif 147 / 146 40% 1 01.02.2027 -
Nacer Tielemans Mouscron Actif 120 / 120 40% 1 30.01.2027 -
David Ankeye Zeleznicar Pancevo Actif 99 / 116 40% 1 13.01.2027 -
Tommy Conway Middlesbrough Actif 116 / 116 40% 2 12.01.2027 -
Martin Cedidla Spartak Moscow Actif 131 / 132 89% 1 05.01.2027 Approuver
Konstantin Tyukavin Inter Actif 132 / 133 66% 1 05.01.2027 Approuver
Moussa Dembélé CR Belouizdad Actif 140 / 144 40% 1 04.01.2027 -
Cameron Archer Southampton Actif 115 / 113 40% 1 04.01.2027 -
Bertrand Traoré Sunderland Actif 148 / 145 40% 2 03.01.2027 -
Ayoub El Kaabi Olympiacos Actif 130 / 136 40% 1 03.01.2027 -
Evidence Makgopa Orlando Pirates Actif 121 / 101 40% 2 02.01.2027 -
Kerem Aktürkoğlu Fenerbahce Actif 128 / 142 40% 1 02.01.2027 -
Mandla Mahlangu Ajax Cape Town Actif 120 / 109 40% 3 01.01.2027 -
Bamba Dieng Crvena Zvezda Actif 124 / 120 40% 4 31.12.2026 -
Elijah Adebayo Luton Town Actif 133 / 126 40% 1 31.12.2026 -
Razvan Balasa Crvena Zvezda Actif 134 / 151 40% 4 30.12.2026 -
Peter Shalulile Mamelodi Sundowns Actif 134 / 123 40% 4 29.12.2026 -
Oli McBurnie Hull City Actif 133 / 133 40% 2 29.12.2026 -
Manfred Ugalde Spartak Moscow Actif 119 / 130 40% 1 27.12.2026 -
Hany Mukhtar Spezia Actif 129 / 128 40% 1 26.12.2026 -
Stephen Humphrys Bradford City Actif 109 / 117 40% 1 24.12.2026 -
Alejandro Melo Cibalia Actif 107 / 113 40% 3 23.12.2026 -
Etiosa Ighodaro Kaizer Chiefs Actif 125 / 100 40% 1 22.12.2026 -
Tyrese Campbell Sheffield United Actif 126 / 138 40% 2 21.12.2026 -
Mohamed Ali Ben Romdhane Al Ahly Actif 144 / 115 40% 1 20.12.2026 -
Bojan Radulović Huddersfield Town Actif 122 / 103 40% 1 17.12.2026 -
Ruben van Bommel Ferencvaros Actif 148 / 130 40% 1 17.12.2026 Plus d'infos
Marezi Portsmouth Actif 108 / 123 40% 1 15.12.2026 -
Romelu Lukaku Fenerbahce Actif 159 / 152 40% 1 14.12.2026 -
Zian Flemming Ipswich Town Actif 122 / 122 40% 1 14.12.2026 -
Aune Heggebø West Bromwich Albion Actif 141 / 123 40% 3 13.12.2026 -
Josh Windass Wrexham Actif 133 / 136 40% 1 13.12.2026 -
Themba Ngcobo SuperSport United Actif 110 / 116 40% 4 12.12.2026 -
Petar Musa Adana Demirspor Actif 126 / 125 40% 1 12.12.2026 -
Tom Cannon Sheffield United Actif 137 / 130 40% 1 10.12.2026 -
Everton Bala Levski Actif 128 / 126 40% 1 08.12.2026 -
Lorent Tolaj Plymouth Argyle Actif 107 / 117 40% 1 06.12.2026 -
Antoine Griezmann Orlando City Actif 163 / 160 40% 2 05.12.2026 -
Ilyas Ansah Hull City Actif 134 / 121 40% 2 05.12.2026 -
Ammar Ramadan DAC Dunajska Streda Actif 113 / 124 40% 1 04.12.2026 -
Carlton Morris Derby County Actif 122 / 116 40% 1 04.12.2026 -
Sam Bell Bristol City Actif 114 / 133 40% 1 02.12.2026 -
Zeki Amdouni Burnley Actif 146 / 138 40% 1 30.11.2026 -
Guilherme Ankaragucu Actif 112 / 121 40% 1 30.11.2026 -
Luis Vázquez Birmingham Actif 124 / 136 40% 1 29.11.2026 -
Niall Ennis Blackpool Actif 119 / 120 40% 1 29.11.2026 -
Sead Hakšabanović Malmo FF Actif 114 / 130 40% 1 28.11.2026 -
Petar Stanić Ludogorets Actif 149 / 135 40% 1 28.11.2026 -
Derensili Sanches Fernandes Huddersfield Town Actif 137 / 110 40% 2 27.11.2026 -
Koki Saito Queens Park Rangers Actif 113 / 113 40% 1 27.11.2026 -
Luciano Gondou CSKA Moscow Actif 117 / 127 40% 2 26.11.2026 -
Welington Southampton Actif 139 / 118 40% 1 20.11.2026 -
Diego Valdés Vélez Actif 127 / 125 40% 1 17.11.2026 -
Tomás Silva Platense Actif 127 / 118 40% 1 17.11.2026 -
Erison Kawasaki Frontale Actif 141 / 130 40% 3 15.11.2026 -
Aleksandar Cavric Kashima Antlers Actif 115 / 127 40% 1 14.11.2026 -
Jhonatan Candia Barracas Central Actif 124 / 115 40% 2 13.11.2026 -
Asahi Uenaka Gamba Osaka Actif 118 / 131 40% 4 12.11.2026 -
Lewis Morgan SuperSport United Actif 121 / 135 40% 3 10.11.2026 -
Bénie Traoré New York City Actif 132 / 129 40% 1 08.11.2026 -
Andrei Cordea CFR Cluj Actif 114 / 124 40% 1 08.11.2026 -
Samuel Essende Young Boys Actif 125 / 133 40% 1 03.11.2026 -
Haris Tabaković Red Bull Salzburg Actif 149 / 134 40% 1 03.11.2026 -
Franco Zapiola Platense Actif 121 / 115 40% 1 02.11.2026 -
Facundo Mura Inter Miami CF Actif 131 / 121 40% 1 31.10.2026 -
David Barbona Defensa y Justicia Actif 125 / 127 40% 1 31.10.2026 -
Tomás González Piast Actif 122 / 107 40% 1 31.10.2026 -
Alexis Cuello San Lorenzo Actif 121 / 117 40% 1 28.10.2026 -
Mayckel Lahdo Malmo FF Actif 137 / 133 40% 2 25.10.2026 -
Antony Portland Timbers Actif 129 / 124 40% 3 25.10.2026 -
Daiya Tono Yokohama F. Marinos Actif 121 / 124 40% 2 25.10.2026 -
Gabriel Jesus Barcelona Actif 147 / 151 40% 5 23.10.2026 -
Tobias Gulliksen Rapid Wien Actif 137 / 120 40% 1 21.10.2026 -
Bryan Ramírez FC Cincinnati Actif 126 / 123 40% 1 20.10.2026 -
Koki Ogawa Jubilo Iwata Actif 128 / 123 40% 1 19.10.2026 -
Wessam Abou Ali Columbus Crew Actif 130 / 135 40% 1 19.10.2026 -
Shu Morooka Avispa Fukuoka Actif 117 / 112 40% 1 18.10.2026 -
Nicolás Fernández Mercau Shakhtar Actif 148 / 123 40% 1 16.10.2026 Plus d'infos
Lukáš Červ Viktoria Plzen Actif 146 / 119 40% 2 14.10.2026 -
Heung-Min Son Los Angeles Football Club Actif 151 / 158 40% 2 12.10.2026 -
Cheikh Sabaly Vancouver Whitecaps Actif 126 / 120 40% 1 12.10.2026 -
Jin Okumura Ventforet Kofu Actif 121 / 117 40% 2 10.10.2026 -
Iván Angulo Orlando City Actif 137 / 125 40% 2 10.10.2026 -
Louis Munteanu DC United Actif 131 / 121 40% 1 06.10.2026 -
Kévin Denkey FC Cincinnati Actif 129 / 128 40% 3 05.10.2026 -
Theo Corbeanu Toronto FC Actif 119 / 118 40% 1 05.10.2026 -
Dejan Joveljić Seattle Sounders Actif 123 / 124 40% 2 02.10.2026 -
Ola Brynhildsen Bodo/Glimt Actif 138 / 136 40% 1 02.10.2026 -
Yuki Kakita Kashima Antlers Actif 135 / 129 40% 2 29.09.2026 -
Dániel Sallói Toronto FC Actif 120 / 123 40% 1 29.09.2026 -
Teruhito Nakagawa FC Tokyo Actif 114 / 125 40% 1 24.09.2026 -
Paxten Aaronson Colorado Rapids Actif 128 / 140 40% 1 24.09.2026 -
Dean David Yokohama F. Marinos Actif 108 / 124 40% 1 21.09.2026 -
Gabriel Busanello Malmo FF Actif 114 / 109 40% 1 21.09.2026 -
Yota Komi Kashiwa Reysol Actif 115 / 115 40% 1 19.09.2026 -
Esequiel Barco Spartak Moscow Actif 151 / 138 40% 1 18.09.2026 -
Victor Olatunji Real Salt Lake Actif 111 / 121 40% 1 17.09.2026 -
Ryo Germain Sanfrecce Hiroshima Actif 130 / 130 40% 2 11.09.2026 -
Jesus Ferreira Seattle Sounders Actif 123 / 134 40% 1 11.09.2026 -
Josh Sargent Toronto FC Actif 131 / 128 40% 1 08.09.2026 -
Tomás Chancalay Minnesota United FC Actif 119 / 122 40% 1 08.09.2026 -
Ángel Sepúlveda Guadalajara Actif 118 / 130 40% 1 03.08.2026 -